• Join FlightAware (Why Join?)
  • Login
  • US Flag 
02:31AM EST


 

Airport Tracker/Info


-or-


 

Live Flight TrackerFlight Track Log ✈ DAL6196 ✈ 08-Oct-2013 ✈ KCHO - KLGA

Flight Track Log - Related Links

Times and Time Zones

All times are in EDT time to prevent confusion due to time zone crossing. See the DAL6196 flight status page for this flight to view local times or setup timezone preferences in your user account.

Time Position Orientation Groundspeed Altitude Reporting Facility
EDT Latitude Longitude Course Direction KTS MPH feet Rate Location/Type
06:13AM 38.1833 -78.4333 80° East 165 190 3,000  Level Potomac TRACON
06:14AM 38.1908 -78.3817 80° East 176 203 5,900 2,820 Climbing Washington Center
06:15AM 38.1406 -78.3058 130° Southeast 208 239 8,900 2,880 Climbing Washington Center
06:16AM 38.0858 -78.2378 136° Southeast 265 305 11,700 2,700 Climbing Washington Center
06:17AM 38.0189 -78.1486 134° Southeast 301 346 14,400 2,340 Climbing Washington Center
06:18AM 38.0194 -78.0219 90° East 310 357 16,500 1,980 Climbing Washington Center
06:19AM 38.0303 -77.8853 84° East 336 387 18,400 1,980 Climbing Washington Center
06:20AM 38.0394 -77.7406 85° East 375 432 20,500 2,100 Climbing Washington Center
06:21AM 38.0625 -77.5989 78° East 399 459 22,600 2,100 Climbing Washington Center
06:22AM 38.1272 -77.4739 57° Northeast 394 453 24,700 1,800 Climbing Washington Center
06:23AM 38.1897 -77.3458 58° Northeast 406 467 26,300 1,320 Climbing Washington Center
06:24AM 38.2583 -77.2100 57° Northeast 426 490 27,400 1,020 Climbing Washington Center
06:25AM 38.3267 -77.0686 58° Northeast 447 514 28,400 360 Climbing Washington Center
06:26AM 38.3994 -76.9269 57° Northeast 460 529 28,200 -900 Descending Washington Center
06:27AM 38.4675 -76.7797 59° Northeast 474 545 26,700 -1,560 Descending Washington Center
06:28AM 38.5314 -76.6533 57° Northeast 469 540 25,200 -840 Descending Washington Center
06:29AM 38.5950 -76.5186 59° Northeast 458 527 25,000 -120 Descending Washington Center
06:30AM 38.6606 -76.3814 59° Northeast 453 521 25,000  Level Washington Center
06:31AM 38.7261 -76.2436 59° Northeast 448 516 25,000  Level Washington Center
06:32AM 38.7956 -76.1056 57° Northeast 453 521 25,000  Level Washington Center
06:33AM 38.8586 -75.9675 60° Northeast 453 521 25,000  Level Washington Center
06:34AM 38.9236 -75.8317 58° Northeast 448 516 25,000  Level Washington Center
06:35AM 39.0153 -75.7225 43° Northeast 447 514 25,000  Level Washington Center
06:36AM 39.1175 -75.6264 36° Northeast 440 506 25,000 -240 Level Washington Center
06:37AM 39.2156 -75.5328 36° Northeast 440 506 24,600 -1,080 Descending Washington Center
06:38AM 39.3156 -75.4467 34° Northeast 440 506 23,000 -1,620 Descending Washington Center
06:39AM 39.4111 -75.3578 36° Northeast 428 493 21,400 -1,620 Descending Washington Center
06:40AM 39.5089 -75.2714 34° Northeast 421 484 19,800 -1,620 Descending Washington Center
06:41AM 39.6003 -75.1850 36° Northeast 421 484 18,200 -1,380 Descending Washington Center
06:42AM 39.7000 -75.0953 35° Northeast 404 465 17,100 -1,380 Descending Washington Center
06:43AM 39.7914 -75.0164 34° Northeast 393 452 15,500 -1,500 Descending Washington Center
06:44AM 39.8722 -74.9453 34° Northeast 393 452 14,100 -1,500 Descending Washington Center
06:45AM 39.9500 -74.8500 43° Northeast 395 455 12,800 -1,500 Descending New York TRACON
06:46AM 40.0167 -74.7500 49° Northeast 396 456 11,400 -1,440 Descending New York TRACON
06:47AM 40.0833 -74.6500 49° Northeast 374 430 10,100 -780 Descending New York TRACON
06:48AM 40.1667 -74.5667 37° Northeast 368 423 10,000 -60 Descending New York TRACON
06:49AM 40.2333 -74.4667 49° Northeast 347 399 10,000 -720 Level New York TRACON
06:50AM 40.2833 -74.4000 45° Northeast 295 339 8,600 -1,560 Descending New York TRACON
06:51AM 40.3333 -74.3333 45° Northeast 286 329 7,100 -900 Descending New York TRACON
06:52AM 40.4000 -74.2667 37° Northeast 280 322 7,000 -180 Descending New York TRACON
06:52AM 40.4500 -74.2000 45° Northeast 283 326 6,800 -1,020 Descending New York TRACON
06:53AM 40.5167 -74.1333 37° Northeast 264 304 5,100 -1,740 Descending New York TRACON
06:54AM 40.5667 -74.0833 37° Northeast 244 281 3,400 -1,380 Descending New York TRACON
06:55AM 40.6167 -74.0333 37° Northeast 239 275 2,500 -480 Descending New York TRACON
06:56AM 40.6667 -73.9833 37° Northeast 238 274 2,500  Level New York TRACON
06:57AM 40.7000 -73.9500 37° Northeast 174 200 2,500 -360 Level New York TRACON
06:58AM 40.7167 -73.9000 66° East 162 186 1,900 -720 Descending New York TRACON
06:59AM 40.7333 -73.8500 66° East 117 135 1,100 -720 Descending New York TRACON
07:00AM 40.7667 -73.8333 21° North 114 131 500 -600 Descending New York TRACON
07:02AM 40.7667 -73.8667 30° Northeast  Level FlightAware Approximate